1 de octubre de 2022

Hora Código Tiempo Temp. Visibilidad Cielo nuboso Viento METAR/SPECI
03:00
V
10 °C 15 mi - Var Var 2 kt METAR CYYZ 010700Z VRB02KT 15SM SCT250 10/07 A3018 RMK CI4 SLP224
02:00
V
10 °C 15 mi - 340° 340° 4 kt METAR CYYZ 010600Z 34004KT 15SM SCT250 10/07 A3018 RMK CI4 SLP223
01:00
V
10 °C 15 mi - Var Var 2 kt METAR CYYZ 010500Z VRB02KT 15SM FEW250 10/03 A3021 RMK CI2 SLP233
00:00
V
12 °C 15 mi - 010° 010° 3 kt METAR CYYZ 010400Z 01003KT 15SM SCT250 12/01 A3020 RMK CI3 SLP231

30 de septiembre de 2022

Hora Código Tiempo Temp. Visibilidad Cielo nuboso Viento METAR/SPECI
23:00
V
12 °C 15 mi - 010° 010° 5 kt METAR CYYZ 010300Z 01005KT 15SM SCT250 12/01 A3020 RMK CI3 SLP232
22:00
V
12 °C 15 mi - 020° 020° 6 kt METAR CYYZ 010200Z 02006KT 15SM SCT250 12/01 A3022 RMK CI4 SLP237
21:00
V
13 °C 15 mi - 010° 010° 2 kt METAR CYYZ 010100Z 01002KT 15SM SCT250 13/03 A3022 RMK CI4 SLP239
20:00
V
13 °C 15 mi - Var Var 2 kt METAR CYYZ 010000Z VRB02KT 15SM SCT250 13/03 A3023 RMK CI4 SLP241
19:00
V
14 °C 15 mi 25.000 ft 130° 130° 4 kt METAR CYYZ 302300Z 13004KT 15SM BKN250 14/01 A3022 RMK CI5 SLP240
18:00
V
15 °C 15 mi 25.000 ft 170° 170° 6 kt METAR CYYZ 302200Z 17006KT 15SM BKN250 15/01 A3023 RMK CI5 SLP243
17:00
V
16 °C 15 mi - 150° 150° 5 kt METAR CYYZ 302100Z 15005KT 15SM SCT250 16/03 A3024 RMK CI4 SLP247
16:00
V
16 °C 15 mi - 140° 140° 7 kt METAR CYYZ 302000Z 14007KT 15SM FEW140 SCT250 16/03 A3026 RMK AC2CI1 SLP253
15:00
V
17 °C 15 mi - 150° 150° 6 kt METAR CYYZ 301900Z 15006KT 090V170 15SM FEW220 17/06 A3029 RMK CI2 SLP261 DENSITY ALT 600FT
14:00
V
16 °C 15 mi - Var Var 5 kt METAR CYYZ 301800Z VRB05KT 15SM FEW180 16/06 A3032 RMK AC1 SLP271
13:00
V
16 °C 15 mi - 110° 110° 5 kt METAR CYYZ 301700Z 11005KT 090V220 15SM FEW160 16/07 A3033 RMK AC1 AC TR SLP277
12:00
V
16 °C 15 mi - 130° 130° 6 kt METAR CYYZ 301600Z 13006KT 060V180 15SM FEW060 FEW160 16/08 A3036 RMK CF1AC1 CF TR AC TR SLP286
11:00
V
15 °C 15 mi - Var 000° 0 kt METAR CYYZ 301500Z 00000KT 15SM FEW160 15/06 A3038 RMK AC1 AC TR SLP292
10:00
V
13 °C 15 mi - 010° 010° 3 kt METAR CYYZ 301400Z 01003KT 310V060 15SM FEW160 13/06 A3038 RMK AC1 AC TR SLP293
09:00
V
10 °C 15 mi - Var Var 2 kt METAR CYYZ 301300Z VRB02KT 15SM FEW160 10/05 A3039 RMK AC1 AC TR SLP296
08:00
V
7 °C 15 mi - 310° 310° 3 kt METAR CYYZ 301200Z 31003KT 15SM FEW250 07/05 A3039 RMK CI1 CI TR SLP297
07:00
V
7 °C 15 mi - 310° 310° 3 kt METAR CYYZ 301100Z 31003KT 15SM FEW160 07/04 A3038 RMK AC1 SLP293
06:00
V
7 °C 15 mi - Var Var 2 kt METAR CYYZ 301000Z VRB02KT 15SM FEW160 07/05 A3038 RMK AC1 SLP294
05:00
V
7 °C 15 mi - 320° 320° 4 kt METAR CYYZ 300900Z 32004KT 15SM SKC 07/05 A3038 RMK SLP294
04:00
V
7 °C 15 mi - 330° 330° 5 kt METAR CYYZ 300800Z 33005KT 15SM SKC 07/06 A3038 RMK SLP292
03:00
V
7 °C 15 mi - 010° 010° 4 kt METAR CYYZ 300700Z 01004KT 15SM SKC 07/06 A3039 RMK SLP295
02:00
V
8 °C 15 mi - 300° 300° 3 kt METAR CYYZ 300600Z 30003KT 15SM SKC 08/05 A3039 RMK SLP296
01:00
V
9 °C 15 mi - 350° 350° 3 kt METAR CYYZ 300500Z 35003KT 15SM FEW170 09/06 A3039 RMK AS1 SLP298
00:00
V
10 °C 15 mi - 040° 040° 2 kt METAR CYYZ 300400Z 04002KT 15SM FEW170 10/06 A3040 RMK AS1 SLP301

29 de septiembre de 2022

Hora Código Tiempo Temp. Visibilidad Cielo nuboso Viento METAR/SPECI
23:00
V
12 °C 15 mi - 020° 020° 2 kt METAR CYYZ 300300Z 02002KT 15SM FEW170 12/06 A3041 RMK AS2 SLP302
22:00
V
12 °C 15 mi - Var 000° 0 kt METAR CYYZ 300200Z 00000KT 15SM SKC 12/06 A3041 RMK SLP303
21:00
V
12 °C 15 mi - 140° 140° 2 kt METAR CYYZ 300100Z 14002KT 15SM FEW180 12/06 A3041 RMK AS2 SLP302
20:00
V
12 °C 15 mi - 130° 130° 3 kt METAR CYYZ 300000Z 13003KT 15SM SKC 12/06 A3041 RMK SLP302
19:00
V
13 °C 15 mi - 150° 150° 6 kt METAR CYYZ 292300Z 15006KT 15SM SKC 13/06 A3041 RMK SLP303
18:00
V
14 °C 15 mi - 160° 160° 6 kt METAR CYYZ 292200Z 16006KT 15SM FEW045 14/06 A3041 RMK SC1 SC TR SLP304
17:00
V
15 °C 15 mi - 140° 140° 7 kt METAR CYYZ 292100Z 14007KT 15SM FEW045 15/06 A3042 RMK SC1 SC TR SLP305
16:00
V
16 °C 15 mi - 140° 140° 3 kt METAR CYYZ 292000Z 14003KT 100V260 15SM FEW045 16/06 A3043 RMK SC1 SC TR SLP309
15:00
V
15 °C 15 mi - Var Var 2 kt METAR CYYZ 291900Z VRB02KT 15SM FEW045 15/05 A3045 RMK SC1 SC TR SLP314
14:00
V
15 °C 15 mi - Var Var 2 kt METAR CYYZ 291800Z VRB02KT 15SM FEW040 15/05 A3047 RMK SC1 SC TR SLP324
13:00
V
14 °C 15 mi - Var 000° 0 kt METAR CYYZ 291700Z 00000KT 15SM FEW040 14/03 A3049 RMK SC1 SLP331
12:00
V
13 °C 15 mi - 010° 010° 7 kt METAR CYYZ 291600Z 01007KT 340V060 15SM FEW035 13/04 A3051 RMK SC2 SLP335
11:00
V
13 °C 15 mi - Var Var 4 kt METAR CYYZ 291500Z VRB04KT 15SM SCT030 13/05 A3051 RMK SC3 SLP338
10:00
V
12 °C 15 mi - 040° 040° 3 kt METAR CYYZ 291400Z 04003KT 020V130 15SM FEW025 FEW100 12/05 A3052 RMK SC1AC1 AC TR SLP339
09:00
V
10 °C 15 mi - Var Var 2 kt METAR CYYZ 291300Z VRB02KT 15SM FEW045 FEW100 10/06 A3051 RMK SC1AC1 SC TR AC TR SLP337
08:00
V
9 °C 15 mi - 300° 300° 4 kt METAR CYYZ 291200Z 30004KT 15SM FEW045 FEW100 09/06 A3049 RMK SC1AC1 AC TR SLP332
07:00
V
9 °C 15 mi - 350° 350° 4 kt METAR CYYZ 291100Z 35004KT 15SM FEW045 SCT090 09/06 A3048 RMK SC2AC1 AC TR SLP325
06:00
V
9 °C 15 mi 4.500 ft 340° 340° 5 kt METAR CYYZ 291000Z 34005KT 15SM BKN045 09/05 A3047 RMK SC7 SLP323
05:00
V
10 °C 15 mi 4.000 ft 300° 300° 5 kt METAR CYYZ 290900Z 30005KT 15SM FEW025 BKN040 10/06 A3045 RMK SC2SC5 SLP318
Datos más antiguos

Nosotros y terceros seguimos tu comportamiento en Internet en nuestro sitio web con cookies. Si continúas, asumimos que estás de acuerdo con nuestra política de cookies. Más información